Time;durP1;ratioP1;P1;durP2;ratioP2;P2;SDS_P1;SDS_P2;PMS_P1;PMS_P2;Temp;Humidity;BMP_temperature;BMP_pressure;BME280_temperature;BME280_humidity;BME280_pressure;Samples;Min_cycle;Max_cycle;Signal;HPM_P1;HPM_P2
2021/07/07 12:07:08;;;;;;;5.20;2.78;;;20.90;61.60;;;;;;5091072;27;20121;-82
2021/07/07 12:09:34;;;;;;;5.68;2.95;;;20.90;63.40;;;;;;5074927;28;20108;-76
2021/07/07 12:12:00;;;;;;;2.90;2.60;;;20.80;61.40;;;;;;5037058;28;20505;-76
2021/07/07 12:14:28;;;;;;;3.63;2.90;;;20.70;65.70;;;;;;5037880;28;20034;-73
2021/07/07 12:16:54;;;;;;;4.18;3.10;;;21.00;60.80;;;;;;5034492;28;20104;-73
2021/07/07 12:19:20;;;;;;;5.38;4.00;;;21.50;60.90;;;;;;5033108;28;20081;-73
2021/07/07 12:21:50;;;;;;;4.50;4.05;;;21.90;60.50;;;;;;5028890;28;20060;-73
2021/07/07 12:24:15;;;;;;;5.43;4.10;;;22.00;60.30;;;;;;5013850;28;20029;-73
2021/07/07 12:26:43;;;;;;;4.47;3.92;;;22.10;60.20;;;;;;5065381;28;20142;-73
2021/07/07 12:29:25;;;;;;;4.05;3.65;;;22.20;60.20;;;;;;5033793;28;20085;-73
2021/07/07 12:32:02;;;;;;;5.88;4.10;;;22.20;60.40;;;;;;5048375;28;20096;-73
2021/07/07 12:34:32;;;;;;;5.43;4.10;;;22.20;60.30;;;;;;5047805;28;20025;-73
2021/07/07 12:36:59;;;;;;;4.05;3.65;;;22.30;59.90;;;;;;5066024;28;20029;-73
2021/07/07 12:39:31;;;;;;;4.82;4.05;;;22.30;59.90;;;;;;5021044;28;20026;-73
2021/07/07 12:41:58;;;;;;;4.40;3.80;;;22.40;60.20;;;;;;5032615;28;20072;-73
2021/07/07 12:44:34;;;;;;;3.95;3.55;;;22.30;60.40;;;;;;5034478;28;20385;-73
2021/07/07 12:47:19;;;;;;;4.03;3.58;;;22.30;60.60;;;;;;5049426;28;20400;-73
2021/07/07 12:49:50;;;;;;;4.00;3.67;;;22.20;61.00;;;;;;5033728;28;20421;-73
2021/07/07 12:52:26;;;;;;;6.25;3.85;;;22.00;63.00;;;;;;5065992;28;20025;-73
2021/07/07 12:55:05;;;;;;;4.07;3.67;;;22.00;62.00;;;;;;5034008;28;20029;-73
2021/07/07 12:58:02;;;;;;;4.40;3.90;;;22.00;62.20;;;;;;5065958;28;20026;-73
2021/07/07 13:00:30;;;;;;;4.20;3.80;;;22.00;62.40;;;;;;5033977;28;20022;-73
2021/07/07 13:02:59;;;;;;;4.85;4.05;;;21.90;63.00;;;;;;5065629;28;20052;-73
2021/07/07 13:05:29;;;;;;;3.80;3.50;;;21.80;63.40;;;;;;5033121;28;20075;-73
2021/07/07 13:07:56;;;;;;;4.70;3.70;;;21.70;64.00;;;;;;5065255;28;20121;-73
2021/07/07 13:10:30;;;;;;;4.00;3.60;;;21.50;65.40;;;;;;5065984;28;20018;-73
2021/07/07 13:12:56;;;;;;;3.88;3.58;;;21.40;65.90;;;;;;5065159;28;20042;-73
2021/07/07 13:15:22;;;;;;;4.90;3.65;;;21.20;67.00;;;;;;5065645;28;20459;-73
2021/07/07 13:18:02;;;;;;;4.50;3.72;;;21.20;67.40;;;;;;5023947;28;20026;-73
2021/07/07 13:20:28;;;;;;;5.50;3.88;;;21.10;68.10;;;;;;5034759;28;20489;-73
2021/07/07 13:23:01;;;;;;;4.80;3.97;;;20.90;68.20;;;;;;5051904;28;20030;-73
2021/07/07 13:25:27;;;;;;;4.47;3.63;;;20.90;68.70;;;;;;5051830;28;20493;-73
2021/07/07 13:27:53;;;;;;;3.90;3.60;;;20.90;69.30;;;;;;5020021;28;20096;-73
2021/07/07 13:30:27;;;;;;;5.35;3.33;;;20.90;69.70;;;;;;5019767;28;20058;-73
2021/07/07 13:32:52;;;;;;;3.83;3.53;;;20.90;68.90;;;;;;5019980;28;20537;-73
2021/07/07 13:35:18;;;;;;;4.18;3.60;;;20.90;68.70;;;;;;5018479;28;20057;-73
2021/07/07 13:37:44;;;;;;;4.38;3.40;;;21.00;68.60;;;;;;5019853;28;20037;-73
2021/07/07 13:40:10;;;;;;;4.10;3.70;;;21.10;68.30;;;;;;5019978;28;20044;-73
2021/07/07 13:42:37;;;;;;;3.83;3.42;;;21.50;66.60;;;;;;5051738;28;20037;-73
2021/07/07 13:45:03;;;;;;;5.20;3.22;;;21.90;64.10;;;;;;5035008;28;20064;-73
2021/07/07 13:47:29;;;;;;;3.60;3.30;;;22.30;62.30;;;;;;5051490;28;20026;-73
2021/07/07 13:49:58;;;;;;;3.67;3.38;;;22.50;61.60;;;;;;5034911;28;20473;-73
2021/07/07 13:52:24;;;;;;;3.58;3.25;;;22.60;61.30;;;;;;5021716;28;20030;-73
2021/07/07 13:54:50;;;;;;;3.67;3.38;;;22.70;61.10;;;;;;5019577;28;20055;-73
2021/07/07 13:57:15;;;;;;;3.65;3.35;;;22.80;60.50;;;;;;5018332;28;20113;-73
2021/07/07 13:59:41;;;;;;;3.42;3.05;;;22.90;60.30;;;;;;5034640;28;20022;-73
2021/07/07 14:02:07;;;;;;;3.85;3.55;;;22.80;60.40;;;;;;5019302;28;20072;-73
2021/07/07 14:04:33;;;;;;;3.50;3.20;;;22.90;60.50;;;;;;5024733;28;20033;-73
2021/07/07 14:06:58;;;;;;;3.25;2.95;;;22.80;60.60;;;;;;5059294;28;20057;-73
2021/07/07 14:09:24;;;;;;;4.30;3.45;;;22.90;60.50;;;;;;5051186;28;20497;-73
2021/07/07 14:11:50;;;;;;;3.40;3.10;;;23.00;60.30;;;;;;5053998;28;20030;-73
2021/07/07 14:14:16;;;;;;;3.40;3.10;;;23.00;59.80;;;;;;5029860;28;20152;-74
2021/07/07 14:16:42;;;;;;;3.15;2.85;;;23.10;59.70;;;;;;5037175;28;20451;-73
2021/07/07 14:19:08;;;;;;;3.45;3.15;;;23.10;59.80;;;;;;5058646;28;20435;-73
2021/07/07 14:22:07;;;;;;;3.95;2.30;;;23.20;59.50;;;;;;5024469;28;20104;-84
2021/07/07 14:24:33;;;;;;;5.60;2.50;;;22.40;64.20;;;;;;5014006;28;20042;-75
2021/07/07 14:26:59;;;;;;;5.47;2.70;;;22.10;59.60;;;;;;5020424;28;20299;-74
2021/07/07 14:29:24;;;;;;;4.47;2.70;;;21.60;62.40;;;;;;5051951;28;20496;-74
2021/07/07 14:31:50;;;;;;;5.88;2.90;;;21.30;65.90;;;;;;5016987;28;20397;-74
2021/07/07 14:34:17;;;;;;;3.75;2.42;;;21.10;66.10;;;;;;5018449;28;20030;-73
2021/07/07 14:36:43;;;;;;;2.92;2.40;;;21.00;66.00;;;;;;5017762;28;20020;-74
2021/07/07 14:39:09;;;;;;;2.20;2.00;;;21.10;66.70;;;;;;5003069;28;20105;-74
2021/07/07 14:41:35;;;;;;;2.63;2.00;;;20.90;64.40;;;;;;5017068;28;20049;-74
2021/07/07 14:44:01;;;;;;;2.55;1.90;;;21.10;63.80;;;;;;4997317;28;20073;-75
2021/07/07 14:46:27;;;;;;;2.42;1.83;;;21.30;63.20;;;;;;5016356;28;20068;-75
2021/07/07 14:48:52;;;;;;;2.85;1.50;;;21.50;60.40;;;;;;4998440;28;20034;-74
2021/07/07 14:51:18;;;;;;;1.58;1.30;;;21.70;59.50;;;;;;5053889;28;20029;-74
2021/07/07 14:53:44;;;;;;;1.58;1.48;;;21.80;61.20;;;;;;5017495;28;20029;-74
2021/07/07 14:56:09;;;;;;;2.97;1.75;;;21.90;61.50;;;;;;5018740;28;20026;-74
2021/07/07 14:58:35;;;;;;;2.10;1.90;;;22.20;61.50;;;;;;5018768;28;20033;-74
2021/07/07 15:01:01;;;;;;;3.22;1.80;;;22.20;61.80;;;;;;5051398;28;20037;-74
2021/07/07 15:03:26;;;;;;;3.10;2.28;;;21.90;61.50;;;;;;5018286;28;20034;-74
2021/07/07 15:05:52;;;;;;;3.85;2.30;;;21.90;64.40;;;;;;5016669;28;20061;-74
2021/07/07 15:08:18;;;;;;;4.47;2.47;;;22.10;62.80;;;;;;5016954;28;20022;-74
2021/07/07 15:10:43;;;;;;;5.85;2.60;;;21.80;64.70;;;;;;5017452;28;20018;-74
2021/07/07 15:13:09;;;;;;;4.53;2.83;;;21.90;66.90;;;;;;5015851;28;20029;-74
2021/07/07 15:15:38;;;;;;;3.85;2.80;;;21.80;65.60;;;;;;5017759;28;20049;-75
2021/07/07 15:18:05;;;;;;;5.93;2.80;;;21.50;65.90;;;;;;5016036;28;20049;-75
2021/07/07 15:20:31;;;;;;;4.40;2.33;;;21.30;65.00;;;;;;5017075;28;20063;-75
2021/07/07 15:22:57;;;;;;;2.83;2.08;;;22.10;64.00;;;;;;5048616;28;20036;-75
2021/07/07 15:25:24;;;;;;;2.88;2.28;;;22.60;59.60;;;;;;5017243;28;20026;-74
2021/07/07 15:27:50;;;;;;;3.15;2.00;;;22.00;63.40;;;;;;5017280;28;20371;-74
2021/07/07 15:30:19;;;;;;;3.33;2.13;;;22.20;59.70;;;;;;5016530;28;20105;-74
2021/07/07 15:32:44;;;;;;;3.10;2.17;;;22.50;57.50;;;;;;5017245;28;20025;-74
2021/07/07 15:35:10;;;;;;;3.22;2.13;;;23.00;58.80;;;;;;5017219;28;20489;-74
2021/07/07 15:37:36;;;;;;;2.75;2.30;;;22.30;59.10;;;;;;5016726;28;20054;-74
2021/07/07 15:40:03;;;;;;;3.83;2.47;;;23.30;57.30;;;;;;5016613;28;20512;-74
2021/07/07 15:42:29;;;;;;;4.47;2.35;;;23.00;57.80;;;;;;5014758;28;20574;-74
2021/07/07 15:44:54;;;;;;;4.72;2.53;;;22.30;58.10;;;;;;5026754;28;20092;-74
2021/07/07 15:47:20;;;;;;;4.47;2.80;;;21.70;60.30;;;;;;5010459;28;20437;-74
2021/07/07 15:49:46;;;;;;;4.57;2.72;;;21.60;66.10;;;;;;5049186;28;20358;-74
2021/07/07 15:52:12;;;;;;;3.53;2.40;;;21.70;63.20;;;;;;5017545;28;20021;-73
2021/07/07 15:54:37;;;;;;;3.78;2.97;;;21.50;66.50;;;;;;5017757;28;20026;-74
2021/07/07 15:57:03;;;;;;;3.95;2.60;;;21.90;62.50;;;;;;5014364;28;20026;-74
2021/07/07 15:59:29;;;;;;;4.68;3.00;;;21.60;63.10;;;;;;5015612;28;20022;-74
2021/07/07 16:01:55;;;;;;;6.10;2.78;;;21.30;64.60;;;;;;5032864;28;20508;-74
2021/07/07 16:04:21;;;;;;;4.20;3.33;;;21.30;63.80;;;;;;5016085;28;20104;-74
2021/07/07 16:06:46;;;;;;;4.03;2.97;;;21.10;65.60;;;;;;5048818;28;20050;-73
2021/07/07 16:09:12;;;;;;;5.15;3.13;;;21.20;64.70;;;;;;5017582;28;20018;-74
2021/07/07 16:11:38;;;;;;;4.75;3.08;;;21.20;64.50;;;;;;5017262;28;20064;-74
2021/07/07 16:14:03;;;;;;;3.97;3.30;;;21.70;63.50;;;;;;5015981;28;20105;-73
2021/07/07 16:16:29;;;;;;;4.93;3.40;;;21.40;65.60;;;;;;5017183;28;20033;-73
2021/07/07 16:18:55;;;;;;;5.53;3.53;;;20.90;65.10;;;;;;5049163;28;20037;-76
2021/07/07 16:21:21;;;;;;;4.90;3.15;;;20.90;66.40;;;;;;5048517;28;20026;-74
2021/07/07 16:23:47;;;;;;;8.13;3.97;;;20.90;66.70;;;;;;5017385;28;20022;-74
2021/07/07 16:26:13;;;;;;;5.82;3.40;;;20.90;65.60;;;;;;5027862;28;20494;-74
2021/07/07 16:28:43;;;;;;;5.20;3.80;;;21.10;63.20;;;;;;5039458;28;20010;-73
2021/07/07 16:31:09;;;;;;;4.47;3.45;;;21.10;65.50;;;;;;5031922;28;20485;-73
2021/07/07 16:33:35;;;;;;;4.20;3.53;;;21.10;65.70;;;;;;5017206;28;20026;-74
2021/07/07 16:36:00;;;;;;;7.30;4.35;;;21.20;65.10;;;;;;5015399;28;20026;-75
2021/07/07 16:38:26;;;;;;;4.28;3.50;;;21.10;66.20;;;;;;5017130;28;20060;-75
2021/07/07 16:40:52;;;;;;;4.30;3.67;;;21.10;65.70;;;;;;5016828;28;20052;-76
2021/07/07 16:43:21;;;;;;;6.15;3.85;;;21.10;66.00;;;;;;5017099;28;20018;-75
2021/07/07 16:45:47;;;;;;;5.43;3.67;;;21.20;66.30;;;;;;5016770;28;20054;-78
2021/07/07 16:48:12;;;;;;;6.65;4.18;;;21.00;65.30;;;;;;5016703;28;20513;-75
2021/07/07 16:50:38;;;;;;;5.53;3.53;;;20.90;67.20;;;;;;5016823;28;20026;-75
2021/07/07 16:53:04;;;;;;;5.25;3.60;;;20.80;66.30;;;;;;5018274;28;20433;-76
2021/07/07 16:55:30;;;;;;;6.28;3.50;;;20.60;66.60;;;;;;5016373;28;20026;-75
2021/07/07 16:57:56;;;;;;;5.32;4.15;;;20.60;67.00;;;;;;5020495;28;20137;-76
2021/07/07 17:00:21;;;;;;;6.20;4.25;;;20.60;66.80;;;;;;5019230;28;20532;-76
2021/07/07 17:02:47;;;;;;;5.15;4.30;;;20.70;67.30;;;;;;5020472;28;20026;-76
2021/07/07 17:05:13;;;;;;;5.18;3.83;;;20.70;68.60;;;;;;5016178;28;20049;-76
2021/07/07 17:07:39;;;;;;;5.25;3.97;;;20.70;67.30;;;;;;5019541;28;20034;-76
2021/07/07 17:10:05;;;;;;;5.80;3.78;;;20.80;67.70;;;;;;5018995;28;20482;-76
2021/07/07 17:12:30;;;;;;;5.60;3.30;;;20.70;65.90;;;;;;5019820;28;20081;-76
2021/07/07 17:14:56;;;;;;;3.67;3.20;;;20.50;67.00;;;;;;5020197;28;20026;-74
2021/07/07 17:17:22;;;;;;;5.65;3.55;;;20.20;67.50;;;;;;5020160;28;20040;-75
2021/07/07 17:19:47;;;;;;;6.03;3.42;;;20.00;68.10;;;;;;5019794;28;20026;-74
2021/07/07 17:22:13;;;;;;;4.90;3.33;;;20.10;69.00;;;;;;5018843;28;20479;-75
2021/07/07 17:25:01;;;;;;;4.93;3.80;;;20.30;67.90;;;;;;4993589;28;20053;-81
2021/07/07 17:27:28;;;;;;;263.83;28.80;;;20.70;66.50;;;;;;5022957;28;20034;-78
2021/07/07 17:29:54;;;;;;;6.13;3.38;;;20.90;75.60;;;;;;5019359;28;20080;-80
2021/07/07 17:32:19;;;;;;;6.18;3.42;;;20.90;65.40;;;;;;5051882;28;20033;-77
2021/07/07 17:44:22;;;;;;;7.25;4.10;;;19.90;67.90;;;;;;5915768;23;20289;-79
2021/07/07 17:46:49;;;;;;;7.10;4.65;;;19.70;68.00;;;;;;5009439;28;20032;-80
2021/07/07 17:49:21;;;;;;;5.95;4.30;;;19.60;70.40;;;;;;5010247;28;20022;-83
2021/07/07 17:51:52;;;;;;;5.63;3.67;;;19.90;69.00;;;;;;5003523;28;20030;-81
2021/07/07 17:55:12;;;;;;;5.70;3.72;;;20.30;68.50;;;;;;4966666;28;20466;-85
2021/07/07 17:58:34;;;;;;;5.57;4.03;;;20.60;66.10;;;;;;4967201;28;20060;-85
2021/07/07 18:00:59;;;;;;;5.97;3.80;;;20.10;68.30;;;;;;4991842;28;20038;-81
2021/07/07 18:06:24;;;;;;;5.40;3.40;;;19.80;66.60;;;;;;4969596;28;20068;-80
2021/07/07 18:08:59;;;;;;;6.25;3.88;;;19.70;67.40;;;;;;4999372;28;20018;-82
2021/07/07 18:11:30;;;;;;;7.00;4.05;;;19.50;68.60;;;;;;4981992;28;20442;-83
2021/07/07 18:14:38;;;;;;;6.53;3.70;;;19.50;69.00;;;;;;4982476;28;20117;-82
2021/07/07 18:20:40;;;;;;;5.78;3.88;;;19.30;69.80;;;;;;4939019;28;20040;-85
2021/07/07 18:23:06;;;;;;;6.10;3.83;;;19.40;70.40;;;;;;4996357;28;20022;-79
2021/07/07 18:25:34;;;;;;;5.03;3.45;;;19.40;70.60;;;;;;4998658;28;20034;-80
2021/07/07 18:27:59;;;;;;;6.25;4.00;;;19.40;70.70;;;;;;4980860;28;20019;-81
2021/07/07 18:30:28;;;;;;;6.05;3.72;;;19.30;70.70;;;;;;4981716;28;20033;-81
2021/07/07 18:32:56;;;;;;;4.57;3.30;;;19.10;71.50;;;;;;4998120;28;20106;-78
2021/07/07 18:35:22;;;;;;;5.45;3.58;;;19.00;71.60;;;;;;4948005;28;20042;-76
2021/07/07 18:37:47;;;;;;;7.43;3.95;;;18.90;72.40;;;;;;4984913;28;20071;-77
2021/07/07 18:40:13;;;;;;;9.27;4.10;;;18.70;73.30;;;;;;5006532;28;20031;-77
2021/07/07 18:42:39;;;;;;;8.10;4.22;;;18.60;74.20;;;;;;5006691;28;20019;-77
2021/07/07 18:45:05;;;;;;;6.32;4.50;;;18.70;74.30;;;;;;5008756;28;20052;-77
2021/07/07 18:47:31;;;;;;;5.40;4.00;;;18.70;74.00;;;;;;4978358;28;20026;-77
2021/07/07 18:49:56;;;;;;;6.22;3.92;;;18.70;76.30;;;;;;5003126;28;20030;-75
2021/07/07 18:52:22;;;;;;;6.60;4.47;;;18.70;74.40;;;;;;4975016;28;20455;-75
2021/07/07 18:54:48;;;;;;;4.95;3.42;;;19.40;71.80;;;;;;4947737;28;20026;-75
2021/07/07 18:57:13;;;;;;;5.05;3.63;;;19.90;69.10;;;;;;4997259;28;20027;-75
2021/07/07 18:59:39;;;;;;;8.90;3.53;;;20.10;67.60;;;;;;4963420;28;20049;-73
2021/07/07 19:02:05;;;;;;;6.07;3.55;;;20.30;66.50;;;;;;4997288;28;20049;-72
2021/07/07 19:04:31;;;;;;;4.85;3.58;;;20.30;66.20;;;;;;4996485;28;20555;-73
2021/07/07 19:06:58;;;;;;;5.00;3.42;;;20.30;65.90;;;;;;4982812;28;20048;-76
2021/07/07 19:09:24;;;;;;;4.32;3.38;;;20.30;65.70;;;;;;4996033;28;20022;-73
2021/07/07 19:11:50;;;;;;;4.22;3.60;;;20.30;65.90;;;;;;4980129;28;20025;-74
2021/07/07 19:14:16;;;;;;;5.55;3.70;;;20.20;66.20;;;;;;4964220;28;20503;-73
2021/07/07 19:16:43;;;;;;;5.22;3.95;;;20.20;66.40;;;;;;4996455;28;20030;-74
2021/07/07 19:19:12;;;;;;;4.85;3.00;;;20.10;66.80;;;;;;4997850;28;20106;-74
2021/07/07 19:21:39;;;;;;;7.78;3.65;;;20.10;67.10;;;;;;4987133;28;20026;-73
2021/07/07 19:24:05;;;;;;;5.22;3.67;;;20.00;67.50;;;;;;5006431;28;20062;-74
2021/07/07 19:26:31;;;;;;;3.95;3.30;;;20.00;67.70;;;;;;4987928;28;20491;-74
2021/07/07 19:28:56;;;;;;;5.53;3.17;;;19.90;67.90;;;;;;5000022;28;20494;-74
2021/07/07 19:31:22;;;;;;;6.85;3.80;;;19.90;68.50;;;;;;5013006;28;20033;-74
2021/07/07 19:33:48;;;;;;;4.85;3.47;;;19.90;68.60;;;;;;5015215;28;20025;-74
2021/07/07 19:36:13;;;;;;;4.68;3.38;;;19.90;68.70;;;;;;4996235;28;20038;-74
2021/07/07 19:38:39;;;;;;;4.80;3.65;;;19.80;69.00;;;;;;5003803;28;20034;-74
2021/07/07 19:41:05;;;;;;;5.75;3.72;;;19.70;69.20;;;;;;4966077;28;20026;-74
2021/07/07 19:43:30;;;;;;;4.07;3.10;;;19.80;69.40;;;;;;4982078;28;20450;-74
2021/07/07 19:45:56;;;;;;;6.28;3.85;;;19.70;69.20;;;;;;4983288;28;20054;-74
2021/07/07 19:48:22;;;;;;;6.40;3.40;;;19.70;69.60;;;;;;4965893;28;20057;-76
2021/07/07 19:58:02;;;;;;;5.15;4.00;;;19.60;71.10;;;;;;4941799;28;20026;-78
2021/07/07 20:00:30;;;;;;;4.63;3.85;;;19.70;71.30;;;;;;4961820;28;20050;-77
2021/07/07 20:02:56;;;;;;;5.18;3.80;;;19.60;71.40;;;;;;4977783;28;20065;-77
2021/07/07 20:05:22;;;;;;;5.68;3.63;;;19.60;71.50;;;;;;4962491;28;20453;-77
2021/07/07 20:07:48;;;;;;;5.97;3.80;;;19.60;71.50;;;;;;4994573;28;20097;-77
2021/07/07 20:10:15;;;;;;;4.72;3.75;;;19.60;72.80;;;;;;4980537;28;20019;-77
2021/07/07 20:12:42;;;;;;;5.05;4.13;;;19.60;71.80;;;;;;4995194;28;20032;-77
2021/07/07 20:15:09;;;;;;;5.25;4.15;;;19.60;71.80;;;;;;4979657;28;20505;-77
2021/07/07 20:17:35;;;;;;;6.28;4.38;;;19.60;72.00;;;;;;4963947;28;20018;-77
2021/07/07 20:20:01;;;;;;;5.40;3.97;;;19.60;72.10;;;;;;4994972;28;20030;-74
2021/07/07 20:22:26;;;;;;;5.57;3.90;;;19.60;72.10;;;;;;4978465;28;20393;-75
2021/07/07 20:24:52;;;;;;;5.70;3.67;;;19.60;72.20;;;;;;4978706;28;20078;-75
2021/07/07 20:27:19;;;;;;;6.25;4.03;;;19.50;72.20;;;;;;4979935;28;20438;-74
